createdAt,value
2023-04-23T00:00:56.175Z,535.6923
2023-04-23T00:01:57.818Z,534.2308
2023-04-23T00:02:59.873Z,533.5385
2023-04-23T00:04:01.474Z,533.7692
2023-04-23T00:05:02.784Z,534.2308
2023-04-23T00:06:04.467Z,533.1539
2023-04-23T00:07:06.013Z,533.0769
2023-04-23T00:08:07.794Z,531.6923
2023-04-23T00:09:09.335Z,528.6923
2023-04-23T00:10:11.007Z,526.1539
2023-04-23T00:11:13.192Z,530.7692
2023-04-23T00:12:14.282Z,531.5385
2023-04-23T00:13:15.909Z,531.2308
2023-04-23T00:14:17.629Z,533.7692
2023-04-23T00:15:19.719Z,533.2308
2023-04-23T00:16:20.887Z,530.8461
2023-04-23T00:17:22.492Z,533.0769
2023-04-23T00:18:24.154Z,533.6154
2023-04-23T00:19:25.828Z,532.5385
2023-04-23T00:20:27.405Z,535.3077
2023-04-23T00:21:29.030Z,539.3077
2023-04-23T00:22:30.737Z,538.9231
2023-04-23T00:23:32.447Z,537.2308
2023-04-23T00:24:34.330Z,534.4615
2023-04-23T00:25:35.590Z,531.2308
2023-04-23T00:26:37.313Z,530.1539
2023-04-23T00:27:38.931Z,529.4615
2023-04-23T00:28:41.340Z,529.6923
2023-04-23T00:29:42.215Z,532.0000
2023-04-23T00:30:43.883Z,531.0000
2023-04-23T00:31:45.485Z,532.2308
2023-04-23T00:32:47.330Z,532.1539
2023-04-23T00:33:48.736Z,530.8461
2023-04-23T00:34:50.770Z,531.8461
2023-04-23T00:35:52.018Z,533.6154
2023-04-23T00:36:53.733Z,530.3077
2023-04-23T00:37:55.290Z,532.6923
2023-04-23T00:38:57.027Z,531.9231
2023-04-23T00:39:58.764Z,530.6923
2023-04-23T00:41:00.353Z,533.6154
2023-04-23T00:42:01.878Z,536.9231
2023-04-23T00:43:03.568Z,538.4615
2023-04-23T00:44:05.325Z,536.5385
2023-04-23T00:45:06.861Z,534.3077
2023-04-23T00:46:09.314Z,532.2308
2023-04-23T00:47:10.072Z,530.0769
2023-04-23T00:48:11.805Z,532.0000
2023-04-23T00:49:14.323Z,529.4615
2023-04-23T00:50:15.163Z,529.6154
2023-04-23T00:51:17.370Z,529.2308
2023-04-23T00:52:18.359Z,528.6923
2023-04-23T00:53:19.982Z,529.0000
2023-04-23T00:54:21.570Z,530.2308
2023-04-23T00:55:23.331Z,531.3077
2023-04-23T00:56:24.960Z,528.8461
2023-04-23T00:57:26.594Z,526.9231
2023-04-23T00:58:28.140Z,526.3077
2023-04-23T00:59:29.817Z,526.1539
2023-04-23T01:00:32.319Z,524.7692
2023-04-23T01:01:33.251Z,522.4615
2023-04-23T01:02:34.812Z,523.7692
2023-04-23T01:03:36.682Z,522.3077
2023-04-23T01:04:38.177Z,524.1539
2023-04-23T01:05:39.853Z,521.9231
2023-04-23T01:06:41.472Z,523.0769
2023-04-23T01:07:43.079Z,527.3077
2023-04-23T01:08:44.727Z,527.2308
2023-04-23T01:09:46.396Z,525.3846
2023-04-23T01:10:48.102Z,522.8461
2023-04-23T01:11:49.755Z,521.4615
2023-04-23T01:12:51.277Z,522.0000
2023-04-23T01:13:52.991Z,520.9231
2023-04-23T01:14:54.538Z,523.2308
2023-04-23T01:15:56.268Z,524.3846
2023-04-23T01:16:58.874Z,523.8461
2023-04-23T01:17:59.593Z,522.7692
2023-04-23T01:19:01.084Z,523.2308
2023-04-23T01:20:02.746Z,525.1539
2023-04-23T01:21:04.467Z,525.5385
2023-04-23T01:22:06.139Z,523.7692
2023-04-23T01:23:07.763Z,528.6923
2023-04-23T01:24:09.367Z,526.2308
2023-04-23T01:25:10.977Z,526.0769
2023-04-23T01:26:13.592Z,526.5385
2023-04-23T01:27:14.341Z,523.4615
2023-04-23T01:28:15.956Z,521.2308
2023-04-23T01:29:17.599Z,518.6154
2023-04-23T01:30:19.232Z,516.9231
2023-04-23T01:31:20.966Z,519.5385
2023-04-23T01:32:22.647Z,519.3077
2023-04-23T01:33:24.118Z,514.5385
2023-04-23T01:34:26.778Z,517.7692
2023-04-23T01:35:27.343Z,517.4615
2023-04-23T01:36:29.359Z,516.0000
2023-04-23T01:37:30.818Z,516.4615
2023-04-23T01:38:33.295Z,519.2308
2023-04-23T01:39:33.996Z,517.7692
2023-04-23T01:40:36.014Z,517.3846
2023-04-23T01:41:37.237Z,519.2308
2023-04-23T01:42:38.944Z,519.4615
2023-04-23T01:43:40.558Z,520.4615
2023-04-23T01:44:42.568Z,518.6154
2023-04-23T01:45:43.914Z,519.8461
2023-04-23T01:46:45.432Z,520.7692
2023-04-23T01:47:47.224Z,518.8461
2023-04-23T01:48:48.762Z,518.7692
2023-04-23T01:49:50.397Z,517.5385
2023-04-23T01:50:52.141Z,517.3846
2023-04-23T01:51:53.672Z,516.3846
2023-04-23T01:52:55.406Z,513.8461
2023-04-23T01:53:56.918Z,514.7692
2023-04-23T01:54:59.038Z,514.0769
2023-04-23T01:56:00.236Z,514.0000
2023-04-23T01:57:01.880Z,513.7692
2023-04-23T01:58:03.505Z,513.6154
2023-04-23T01:59:06.466Z,512.2308
2023-04-23T02:00:06.760Z,511.4615
2023-04-23T02:01:09.492Z,513.9231
2023-04-23T02:02:10.069Z,516.3077
2023-04-23T02:03:11.892Z,516.5385
2023-04-23T02:04:13.380Z,513.3077
2023-04-23T02:05:15.181Z,512.3077
2023-04-23T02:06:16.613Z,513.0000
2023-04-23T02:07:18.286Z,515.6154
2023-04-23T02:08:19.938Z,517.0769
2023-04-23T02:09:22.649Z,515.0769
2023-04-23T02:10:23.163Z,512.6154
2023-04-23T02:11:25.096Z,513.4615
2023-04-23T02:12:26.584Z,515.0000
2023-04-23T02:13:28.514Z,514.2308
2023-04-23T02:14:29.756Z,512.7692
2023-04-23T02:15:31.487Z,511.4615
2023-04-23T02:16:33.136Z,513.7692
2023-04-23T02:17:34.784Z,517.1539
2023-04-23T02:18:36.366Z,516.8461
2023-04-23T02:19:38.083Z,513.0000
2023-04-23T02:20:39.666Z,511.2308
2023-04-23T02:21:41.422Z,507.5385
2023-04-23T02:22:43.882Z,511.1538
2023-04-23T02:23:44.664Z,514.7692
2023-04-23T02:24:46.306Z,515.6154
2023-04-23T02:25:48.004Z,516.6923
2023-04-23T02:26:49.549Z,516.4615
2023-04-23T02:27:51.218Z,516.9231
2023-04-23T02:28:53.010Z,515.7692
2023-04-23T02:29:54.499Z,518.5385
2023-04-23T02:30:56.090Z,516.8461
2023-04-23T02:31:57.930Z,515.3846
2023-04-23T02:32:59.437Z,515.4615
2023-04-23T02:34:01.029Z,513.1539
2023-04-23T02:35:02.645Z,512.1539
2023-04-23T02:36:04.308Z,510.9231
2023-04-23T02:37:06.957Z,515.2308
2023-04-23T02:38:07.521Z,515.6923
2023-04-23T02:39:09.102Z,514.2308
2023-04-23T02:40:10.907Z,512.7692
2023-04-23T02:41:12.928Z,515.6923
2023-04-23T02:42:14.204Z,514.6923
2023-04-23T02:43:15.783Z,514.0769
2023-04-23T02:44:17.426Z,513.0000
2023-04-23T02:45:19.088Z,513.7692
2023-04-23T02:46:20.780Z,513.3846
2023-04-23T02:47:22.447Z,512.0000
2023-04-23T02:48:24.031Z,511.6923
2023-04-23T02:49:25.650Z,512.4615
2023-04-23T02:50:27.305Z,514.2308
2023-04-23T02:51:29.509Z,514.1539
2023-04-23T02:52:30.579Z,514.6154
2023-04-23T02:53:32.217Z,512.2308
2023-04-23T02:54:33.829Z,511.9231
2023-04-23T02:55:35.500Z,514.2308
2023-04-23T02:56:37.144Z,513.9231
2023-04-23T02:57:38.932Z,515.6923
2023-04-23T02:58:40.392Z,516.0000
2023-04-23T02:59:42.118Z,516.2308
2023-04-23T03:00:43.725Z,516.3846
2023-04-23T03:01:45.394Z,514.9231
2023-04-23T03:02:47.126Z,514.4615
2023-04-23T03:03:48.869Z,514.4615
2023-04-23T03:04:50.256Z,514.1539
2023-04-23T03:05:51.926Z,513.5385
2023-04-23T03:06:53.639Z,513.9231
2023-04-23T03:07:55.936Z,512.0769
2023-04-23T03:08:56.812Z,512.9231
2023-04-23T03:09:58.539Z,512.5385
2023-04-23T03:11:00.167Z,512.8461
2023-04-23T03:12:02.486Z,515.3077
2023-04-23T03:13:03.454Z,515.7692
2023-04-23T03:14:05.140Z,512.0000
2023-04-23T03:15:06.706Z,512.8461
2023-04-23T03:16:08.934Z,510.2308
2023-04-23T03:17:10.060Z,508.3846
2023-04-23T03:18:11.716Z,510.2308
2023-04-23T03:19:13.345Z,511.7692
2023-04-23T03:20:15.914Z,511.0000
2023-04-23T03:21:16.557Z,516.4615
2023-04-23T03:22:18.307Z,515.2308
2023-04-23T03:23:19.926Z,513.8461
2023-04-23T03:24:21.559Z,513.3846
2023-04-23T03:25:23.117Z,517.1539
2023-04-23T03:26:24.828Z,515.6923
2023-04-23T03:27:26.481Z,513.0000
2023-04-23T03:28:28.162Z,510.2308
2023-04-23T03:29:29.707Z,510.3077
2023-04-23T03:30:31.381Z,509.2308
2023-04-23T03:31:32.975Z,513.0000
2023-04-23T03:32:34.714Z,512.5385
2023-04-23T03:33:36.341Z,513.7692
2023-04-23T03:34:37.952Z,517.1539
2023-04-23T03:35:39.594Z,517.0769
2023-04-23T03:36:41.204Z,521.0000
2023-04-23T03:37:42.907Z,518.3846
2023-04-23T03:38:44.596Z,515.6154
2023-04-23T03:39:46.147Z,516.0000
2023-04-23T03:40:47.843Z,515.8461
2023-04-23T03:41:49.418Z,517.6154
2023-04-23T03:42:51.169Z,515.6154
2023-04-23T03:43:53.430Z,515.3077
2023-04-23T03:44:54.371Z,512.8461
2023-04-23T03:45:56.104Z,513.6923
2023-04-23T03:46:58.402Z,513.7692
2023-04-23T03:47:59.428Z,511.1538
2023-04-23T03:49:01.454Z,510.3077
2023-04-23T03:50:02.604Z,509.9231
2023-04-23T03:51:04.229Z,513.0769
2023-04-23T03:52:05.908Z,512.6154
2023-04-23T03:53:07.596Z,515.6154
2023-04-23T03:54:09.128Z,515.0000
2023-04-23T03:55:10.787Z,517.5385
2023-04-23T03:56:12.397Z,517.8461
2023-04-23T03:57:14.016Z,511.6154
2023-04-23T03:58:15.700Z,512.9231
2023-04-23T03:59:17.333Z,512.8461
2023-04-23T04:00:19.032Z,512.6923
2023-04-23T04:01:20.594Z,512.3846
2023-04-23T04:02:22.408Z,513.0769
2023-04-23T04:03:25.185Z,514.3077
2023-04-23T04:04:25.832Z,513.2308
2023-04-23T04:05:27.309Z,511.0000
2023-04-23T04:06:28.914Z,508.0769
2023-04-23T04:07:30.464Z,508.8462
2023-04-23T04:08:32.133Z,509.8462
2023-04-23T04:09:33.764Z,506.6923
2023-04-23T04:10:35.932Z,505.6154
2023-04-23T04:11:37.410Z,503.8462
2023-04-23T04:12:38.739Z,505.3077
2023-04-23T04:13:40.370Z,505.5385
2023-04-23T04:14:42.301Z,504.3077
2023-04-23T04:15:44.459Z,502.3077
2023-04-23T04:16:45.368Z,502.8462
2023-04-23T04:17:47.017Z,502.2308
2023-04-23T04:18:48.724Z,501.5385
2023-04-23T04:19:50.606Z,497.9231
2023-04-23T04:20:52.031Z,497.0769
2023-04-23T04:21:53.630Z,495.3077
2023-04-23T04:22:55.295Z,495.9231
2023-04-23T04:23:57.980Z,494.5385
2023-04-23T04:24:58.454Z,494.1538
2023-04-23T04:26:00.203Z,495.5385
2023-04-23T04:27:01.869Z,494.6154
2023-04-23T04:28:03.554Z,492.3846
2023-04-23T04:29:05.126Z,494.2308
2023-04-23T04:30:06.880Z,494.9231
2023-04-23T04:31:08.505Z,494.6923
2023-04-23T04:32:10.098Z,493.0769
2023-04-23T04:33:11.770Z,494.5385
2023-04-23T04:34:13.449Z,493.3077
2023-04-23T04:35:14.968Z,496.0769
2023-04-23T04:36:16.703Z,497.6923
2023-04-23T04:37:18.279Z,497.2308
2023-04-23T04:38:19.960Z,493.3077
2023-04-23T04:39:21.583Z,491.5385
2023-04-23T04:40:23.278Z,491.1538
2023-04-23T04:41:24.920Z,489.9231
2023-04-23T04:42:26.534Z,489.7692
2023-04-23T04:43:28.227Z,491.1538
2023-04-23T04:44:29.796Z,492.5385
2023-04-23T04:45:31.509Z,492.3846
2023-04-23T04:46:33.131Z,490.6154
2023-04-23T04:47:34.776Z,487.6154
2023-04-23T04:48:37.377Z,485.3846
2023-04-23T04:49:38.089Z,489.5385
2023-04-23T04:50:39.680Z,489.3846
2023-04-23T04:51:41.293Z,489.5385
2023-04-23T04:52:42.983Z,489.1538
2023-04-23T04:53:44.589Z,489.3846
2023-04-23T04:54:46.226Z,493.3077
2023-04-23T04:55:47.907Z,491.3077
2023-04-23T04:56:49.627Z,491.3846
2023-04-23T04:57:52.200Z,492.0769
2023-04-23T04:58:53.776Z,495.2308
2023-04-23T04:59:55.350Z,493.0769
2023-04-23T05:00:56.098Z,492.9231
2023-04-23T05:01:57.793Z,493.8462
2023-04-23T05:02:59.535Z,494.1538
2023-04-23T05:04:01.109Z,491.1538
2023-04-23T05:05:02.619Z,490.7692
2023-04-23T05:06:04.302Z,492.2308
2023-04-23T05:07:05.925Z,493.3077
2023-04-23T05:08:07.574Z,491.0769
2023-04-23T05:09:09.173Z,491.0769
2023-04-23T05:10:10.931Z,494.6154
2023-04-23T05:11:12.498Z,487.5385
2023-04-23T05:12:14.238Z,490.6154
2023-04-23T05:13:15.855Z,488.9231
2023-04-23T05:14:17.459Z,487.2308
2023-04-23T05:15:19.108Z,489.0000
2023-04-23T05:16:20.871Z,490.4615
2023-04-23T05:17:23.075Z,491.8462
2023-04-23T05:18:24.120Z,489.4615
2023-04-23T05:19:25.647Z,490.0769
2023-04-23T05:20:27.352Z,488.2308
2023-04-23T05:21:29.022Z,494.9231
2023-04-23T05:22:30.670Z,494.7692
2023-04-23T05:23:32.213Z,494.9231
2023-04-23T05:24:33.948Z,496.0769
2023-04-23T05:25:35.580Z,496.0769
2023-04-23T05:26:37.267Z,498.0000
2023-04-23T05:27:38.893Z,499.2308
2023-04-23T05:28:40.517Z,497.8462
2023-04-23T05:29:42.118Z,498.3846
2023-04-23T05:30:43.804Z,491.6923
2023-04-23T05:31:45.498Z,489.3846
2023-04-23T05:32:47.198Z,491.9231
2023-04-23T05:33:50.504Z,490.3077
2023-04-23T05:34:50.372Z,488.7692
2023-04-23T05:35:52.019Z,491.2308
2023-04-23T05:36:53.772Z,494.0000
2023-04-23T05:37:55.373Z,495.0000
2023-04-23T05:38:56.996Z,492.1538
2023-04-23T05:39:58.577Z,491.3077
2023-04-23T05:41:00.291Z,493.3077
2023-04-23T05:42:02.405Z,488.9231
2023-04-23T05:43:03.579Z,485.7692
2023-04-23T05:44:05.185Z,487.1538
2023-04-23T05:45:08.864Z,486.3077
2023-04-23T05:46:08.512Z,487.8462
2023-04-23T05:47:10.203Z,487.6923
2023-04-23T05:48:11.843Z,486.8462
2023-04-23T05:49:13.468Z,485.0000
2023-04-23T05:50:15.092Z,484.1538
2023-04-23T05:51:16.788Z,484.0769
2023-04-23T05:52:18.434Z,484.6923
2023-04-23T05:53:20.162Z,481.6923
2023-04-23T05:54:21.653Z,484.3077
2023-04-23T05:55:23.338Z,485.2308
2023-04-23T05:56:25.058Z,488.9231
2023-04-23T05:57:27.525Z,488.6154
2023-04-23T05:58:28.346Z,489.6923
2023-04-23T05:59:29.978Z,488.9231
2023-04-23T06:00:31.630Z,488.2308
2023-04-23T06:01:33.205Z,483.2308
2023-04-23T06:02:35.042Z,481.5385
2023-04-23T06:03:36.793Z,480.2308
2023-04-23T06:04:38.361Z,481.2308
2023-04-23T06:05:39.835Z,480.4615
2023-04-23T06:06:41.484Z,481.3077
2023-04-23T06:07:43.180Z,479.5385
2023-04-23T06:08:45.063Z,483.5385
2023-04-23T06:09:46.401Z,483.6154
2023-04-23T06:10:48.108Z,483.7692
2023-04-23T06:11:49.683Z,485.6154
2023-04-23T06:12:51.592Z,484.2308
2023-04-23T06:13:53.060Z,485.3077
2023-04-23T06:14:54.689Z,484.0000
2023-04-23T06:15:56.319Z,482.7692
2023-04-23T06:16:57.981Z,479.6923
2023-04-23T06:17:59.666Z,475.6154
2023-04-23T06:19:01.588Z,479.7692
2023-04-23T06:20:02.904Z,483.5385
2023-04-23T06:21:04.566Z,482.3846
2023-04-23T06:22:06.164Z,482.2308
2023-04-23T06:23:07.866Z,481.1538
2023-04-23T06:24:09.504Z,480.3846
2023-04-23T06:25:11.180Z,480.4615
2023-04-23T06:26:12.722Z,484.3077
2023-04-23T06:27:14.421Z,484.6154
2023-04-23T06:28:16.163Z,484.3846
2023-04-23T06:29:17.758Z,481.6923
2023-04-23T06:30:19.374Z,479.9231
2023-04-23T06:31:21.061Z,478.3077
2023-04-23T06:32:22.630Z,476.6923
2023-04-23T06:33:24.284Z,479.6923
2023-04-23T06:34:26.131Z,478.5385
2023-04-23T06:35:27.635Z,478.6923
2023-04-23T06:36:29.166Z,480.2308
2023-04-23T06:37:31.029Z,480.7692
2023-04-23T06:38:32.428Z,478.3077
2023-04-23T06:39:34.183Z,474.2308
2023-04-23T06:40:35.718Z,472.3846
2023-04-23T06:41:37.337Z,472.5385
2023-04-23T06:42:40.096Z,470.6923
2023-04-23T06:43:40.887Z,469.3077
2023-04-23T06:44:42.675Z,470.1538
2023-04-23T06:45:44.232Z,469.6154
2023-04-23T06:46:45.826Z,471.9231
2023-04-23T06:47:48.212Z,473.6923
2023-04-23T06:48:48.999Z,477.5385
2023-04-23T06:49:50.736Z,473.0000
2023-04-23T06:50:52.379Z,469.1538
2023-04-23T06:51:56.975Z,467.6154
2023-04-23T06:52:55.476Z,471.1538
2023-04-23T06:53:57.193Z,470.6923
2023-04-23T06:54:59.862Z,472.8462
2023-04-23T06:56:00.461Z,474.0000
2023-04-23T06:57:02.179Z,469.8462
2023-04-23T06:58:03.753Z,468.0769
2023-04-23T06:59:05.356Z,464.2308
2023-04-23T07:00:07.109Z,461.3077
2023-04-23T07:01:08.701Z,455.3846
2023-04-23T07:02:10.369Z,450.0769
2023-04-23T07:03:11.997Z,451.6923
2023-04-23T07:04:13.669Z,452.1538
2023-04-23T07:05:15.272Z,448.9231
2023-04-23T07:06:18.603Z,448.1538
2023-04-23T07:07:18.508Z,448.6923
2023-04-23T07:08:20.205Z,447.7692
2023-04-23T07:09:21.818Z,448.6923
2023-04-23T07:10:23.560Z,450.0000
2023-04-23T07:11:25.142Z,448.2308
2023-04-23T07:12:26.830Z,443.0000
2023-04-23T07:13:28.442Z,445.3077
2023-04-23T07:14:30.087Z,441.0769
2023-04-23T07:15:31.845Z,436.7692
2023-04-23T07:16:33.480Z,437.8462
2023-04-23T07:17:34.992Z,441.5385
2023-04-23T07:18:36.657Z,440.3846
2023-04-23T07:19:38.288Z,437.3077
2023-04-23T07:20:39.989Z,439.3077
2023-04-23T07:21:41.578Z,441.6923
2023-04-23T07:22:43.232Z,436.9231
2023-04-23T07:23:44.865Z,440.0769
2023-04-23T07:24:46.522Z,438.5385
2023-04-23T07:25:48.183Z,439.2308
2023-04-23T07:26:49.858Z,441.2308
2023-04-23T07:27:51.401Z,441.4615
2023-04-23T07:28:53.183Z,437.7692
2023-04-23T07:29:54.704Z,433.4615
2023-04-23T07:30:56.454Z,431.7692
2023-04-23T07:31:58.077Z,433.6923
2023-04-23T07:32:59.718Z,433.0769
2023-04-23T07:34:01.392Z,432.6923
2023-04-23T07:35:02.975Z,432.9231
2023-04-23T07:36:04.598Z,433.3846
2023-04-23T07:37:06.316Z,429.5385
2023-04-23T07:38:07.860Z,430.6923
2023-04-23T07:39:09.545Z,428.1538
2023-04-23T07:40:11.189Z,427.8462
2023-04-23T07:41:12.914Z,426.6923
2023-04-23T07:42:15.068Z,426.6923
2023-04-23T07:43:16.142Z,430.6923
2023-04-23T07:44:17.761Z,432.9231
2023-04-23T07:45:19.500Z,432.0000
2023-04-23T07:46:21.146Z,437.0000
2023-04-23T07:47:23.002Z,436.2308
2023-04-23T07:48:24.413Z,432.6154
2023-04-23T07:49:26.021Z,429.9231
2023-04-23T07:50:27.637Z,430.8462
2023-04-23T07:51:29.351Z,429.6154
2023-04-23T07:52:30.957Z,424.0769
2023-04-23T07:53:32.577Z,424.3077
2023-04-23T07:54:34.207Z,423.7692
2023-04-23T07:55:35.917Z,423.6154
2023-04-23T07:56:37.597Z,421.7692
2023-04-23T07:57:39.241Z,420.0000
2023-04-23T07:58:40.815Z,418.0000
2023-04-23T07:59:42.863Z,419.0000
2023-04-23T08:00:44.088Z,421.6154
2023-04-23T08:01:45.820Z,421.6154
2023-04-23T08:02:47.614Z,419.5385
2023-04-23T08:03:49.440Z,421.1538
2023-04-23T08:04:50.827Z,429.2308
2023-04-23T08:05:52.336Z,431.8462
2023-04-23T08:06:54.045Z,430.2308
2023-04-23T08:07:55.645Z,424.9231
2023-04-23T08:08:57.308Z,422.3077
2023-04-23T08:09:58.900Z,423.6923
2023-04-23T08:11:00.547Z,420.1538
2023-04-23T08:12:02.236Z,421.6923
2023-04-23T08:13:03.902Z,423.3846
2023-04-23T08:14:05.496Z,424.0769
2023-04-23T08:15:07.220Z,424.0000
2023-04-23T08:16:08.790Z,420.3846
2023-04-23T08:17:10.463Z,420.1538
2023-04-23T08:18:12.107Z,421.3077
2023-04-23T08:19:13.706Z,420.7692
2023-04-23T08:20:15.302Z,423.0769
2023-04-23T08:21:17.031Z,420.1538
2023-04-23T08:22:20.293Z,420.4615
2023-04-23T08:23:20.353Z,420.3846
2023-04-23T08:24:22.456Z,421.3077
2023-04-23T08:25:23.603Z,420.1538
2023-04-23T08:26:25.214Z,420.5385
2023-04-23T08:27:26.971Z,420.6923
2023-04-23T08:28:28.593Z,414.1538
2023-04-23T08:29:30.208Z,412.2308
2023-04-23T08:30:31.789Z,413.6154
2023-04-23T08:31:33.509Z,415.7692
2023-04-23T08:32:35.158Z,415.4615
2023-04-23T08:33:36.875Z,412.5385
2023-04-23T08:34:38.442Z,412.3846
2023-04-23T08:35:40.078Z,414.2308
2023-04-23T08:36:41.649Z,415.2308
2023-04-23T08:37:43.444Z,416.5385
2023-04-23T08:38:44.989Z,417.3846
2023-04-23T08:39:46.686Z,416.8462
2023-04-23T08:40:48.227Z,414.3846
2023-04-23T08:41:49.926Z,414.7692
2023-04-23T08:42:51.644Z,416.2308
2023-04-23T08:43:53.238Z,412.7692
2023-04-23T08:44:54.801Z,410.5385
2023-04-23T08:45:56.510Z,408.3077
2023-04-23T08:46:58.248Z,407.7692
2023-04-23T08:48:02.134Z,410.6923
2023-04-23T08:49:01.452Z,413.7692
2023-04-23T08:50:03.074Z,413.3077
2023-04-23T08:51:04.690Z,414.1538
2023-04-23T08:52:06.380Z,413.6923
2023-04-23T08:53:08.065Z,410.9231
2023-04-23T08:54:09.679Z,410.9231
2023-04-23T08:55:11.255Z,412.9231
2023-04-23T08:56:12.940Z,414.0769
2023-04-23T08:57:14.574Z,419.3846
2023-04-23T08:58:16.279Z,421.1538
2023-04-23T08:59:17.911Z,417.2308
2023-04-23T09:00:19.455Z,419.4615
2023-04-23T09:01:21.297Z,418.6923
2023-04-23T09:02:22.986Z,417.9231
2023-04-23T09:03:24.547Z,417.3077
2023-04-23T09:04:26.164Z,416.4615
2023-04-23T09:05:27.710Z,417.9231
2023-04-23T09:06:29.422Z,413.3077
2023-04-23T09:07:31.023Z,411.5385
2023-04-23T09:08:32.753Z,412.6154
2023-04-23T09:09:34.641Z,414.4615
2023-04-23T09:10:35.974Z,410.8462
2023-04-23T09:11:37.577Z,411.2308
2023-04-23T09:12:39.276Z,413.5385
2023-04-23T09:13:40.950Z,415.5385
2023-04-23T09:14:42.852Z,414.5385
2023-04-23T09:15:44.169Z,413.7692
2023-04-23T09:16:45.922Z,407.7692
2023-04-23T09:17:47.529Z,410.6154
2023-04-23T09:18:49.194Z,413.1538
2023-04-23T09:19:50.858Z,416.6923
2023-04-23T09:20:52.528Z,416.0000
2023-04-23T09:21:54.046Z,413.9231
2023-04-23T09:22:55.727Z,413.0000
2023-04-23T09:23:57.449Z,410.0000
2023-04-23T09:24:59.090Z,409.9231
2023-04-23T09:26:00.627Z,412.6154
2023-04-23T09:27:02.267Z,410.7692
2023-04-23T09:28:03.958Z,411.1538
2023-04-23T09:29:05.609Z,410.3077
2023-04-23T09:30:07.294Z,415.0769
2023-04-23T09:31:08.879Z,415.1538
2023-04-23T09:32:10.586Z,411.4615
2023-04-23T09:33:12.151Z,410.6923
2023-04-23T09:34:14.206Z,409.5385
2023-04-23T09:35:15.554Z,409.3077
2023-04-23T09:36:17.233Z,408.3077
2023-04-23T09:37:18.783Z,407.9231
2023-04-23T09:38:20.428Z,406.4615
2023-04-23T09:39:22.065Z,405.4615
2023-04-23T09:40:23.749Z,406.5385
2023-04-23T09:41:25.304Z,408.3077
2023-04-23T09:42:26.986Z,409.3077
2023-04-23T09:43:28.575Z,404.3846
2023-04-23T09:44:30.353Z,403.8462
2023-04-23T09:45:31.945Z,404.7692
2023-04-23T09:46:33.562Z,404.7692
2023-04-23T09:47:35.252Z,405.6154
2023-04-23T09:48:36.879Z,405.3077
2023-04-23T09:49:38.534Z,403.2308
2023-04-23T09:50:40.245Z,402.8462
2023-04-23T09:51:41.769Z,402.1538
2023-04-23T09:52:43.431Z,403.0769
2023-04-23T09:53:45.056Z,404.8462
2023-04-23T09:54:47.214Z,405.1538
2023-04-23T09:55:48.397Z,403.5385
2023-04-23T09:56:50.076Z,408.2308
2023-04-23T09:57:51.611Z,408.2308
2023-04-23T09:58:53.366Z,408.8462
2023-04-23T10:00:03.754Z,408.8462
2023-04-23T10:00:56.638Z,413.0000
2023-04-23T10:01:58.289Z,415.6923
2023-04-23T10:03:00.168Z,414.3077
2023-04-23T10:04:01.694Z,413.3077
2023-04-23T10:05:21.468Z,415.3077
2023-04-23T10:06:05.264Z,417.0769
2023-04-23T10:07:17.923Z,418.0000
2023-04-23T10:08:08.232Z,414.5385
2023-04-23T10:09:09.704Z,410.0769
2023-04-23T10:10:11.463Z,409.6154
2023-04-23T10:11:20.734Z,407.0000
2023-04-23T10:13:16.302Z,408.6923
2023-04-23T10:14:17.962Z,409.3077
2023-04-23T10:15:19.684Z,418.3077
2023-04-23T10:16:23.284Z,413.8462
2023-04-23T10:17:22.932Z,410.2308
2023-04-23T10:18:24.492Z,411.0000
2023-04-23T10:19:27.171Z,408.6923
2023-04-23T10:20:27.878Z,407.0000
2023-04-23T10:21:36.620Z,408.0769
2023-04-23T10:22:31.067Z,407.4615
2023-04-23T10:23:32.802Z,407.0000
2023-04-23T10:24:34.371Z,402.3846
2023-04-23T10:25:36.729Z,402.6923
2023-04-23T10:26:38.190Z,408.0000
2023-04-23T10:27:51.118Z,407.1538
2023-04-23T10:28:41.042Z,405.5385
2023-04-23T10:29:43.017Z,407.5385
2023-04-23T10:30:44.681Z,407.2308
2023-04-23T10:31:45.980Z,409.0000
2023-04-23T10:32:47.561Z,407.3077
2023-04-23T10:33:58.204Z,410.1538
2023-04-23T10:34:50.931Z,411.0769
2023-04-23T10:35:52.601Z,408.3077
2023-04-23T10:36:54.181Z,406.5385
2023-04-23T10:37:55.844Z,408.6923
2023-04-23T10:38:59.106Z,408.7692
2023-04-23T10:39:59.132Z,409.6154
2023-04-23T10:41:00.801Z,409.2308
2023-04-23T10:42:02.466Z,410.0000
2023-04-23T10:43:04.026Z,414.2308
2023-04-23T10:44:05.723Z,410.1538
2023-04-23T10:45:16.613Z,408.7692
2023-04-23T10:46:09.139Z,409.7692
2023-04-23T10:47:10.738Z,411.4615
2023-04-23T10:48:12.460Z,408.2308
2023-04-23T10:49:14.016Z,408.2308
2023-04-23T10:50:15.744Z,410.1538
2023-04-23T10:51:56.084Z,405.6923
2023-04-23T10:52:21.495Z,407.4615
2023-04-23T10:53:20.604Z,413.7692
2023-04-23T10:54:22.319Z,412.3077
2023-04-23T10:55:23.969Z,407.2308
2023-04-23T10:56:25.789Z,405.8462
2023-04-23T10:57:27.271Z,403.6154
2023-04-23T10:58:28.943Z,403.5385
2023-04-23T10:59:30.465Z,405.8462
2023-04-23T11:00:32.164Z,411.6154
2023-04-23T11:01:33.827Z,413.0769
2023-04-23T11:02:35.607Z,413.6154
2023-04-23T11:03:39.646Z,413.2308
2023-04-23T11:04:38.834Z,409.8462
2023-04-23T11:05:40.389Z,407.7692
2023-04-23T11:06:42.089Z,409.8462
2023-04-23T11:07:43.750Z,406.5385
2023-04-23T11:08:45.426Z,402.0000
2023-04-23T11:09:47.013Z,403.7692
2023-04-23T11:10:48.667Z,402.6154
2023-04-23T11:11:50.288Z,404.7692
2023-04-23T11:12:52.027Z,405.6923
2023-04-23T11:13:53.621Z,407.3846
2023-04-23T11:14:55.307Z,408.1538
2023-04-23T11:15:56.907Z,409.7692
2023-04-23T11:16:58.530Z,408.8462
2023-04-23T11:18:00.216Z,408.4615
2023-04-23T11:19:01.911Z,408.3846
2023-04-23T11:20:03.558Z,406.6923
2023-04-23T11:21:05.187Z,406.0769
2023-04-23T11:22:06.767Z,405.2308
2023-04-23T11:23:08.462Z,410.0000
2023-04-23T11:24:10.097Z,410.6923
2023-04-23T11:25:11.842Z,411.0769
2023-04-23T11:26:13.424Z,413.7692
2023-04-23T11:27:15.044Z,413.3077
2023-04-23T11:28:16.694Z,411.7692
2023-04-23T11:29:18.339Z,410.7692
2023-04-23T11:30:19.962Z,411.4615
2023-04-23T11:31:21.656Z,410.6923
2023-04-23T11:32:23.298Z,410.9231
2023-04-23T11:33:24.927Z,410.4615
2023-04-23T11:34:26.604Z,410.6923
2023-04-23T11:35:28.167Z,408.0000
2023-04-23T11:36:30.699Z,411.5385
2023-04-23T11:37:31.480Z,412.9231
2023-04-23T11:38:33.056Z,412.6923
2023-04-23T11:39:34.733Z,410.6154
2023-04-23T11:40:36.643Z,410.2308
2023-04-23T11:41:38.087Z,411.1538
2023-04-23T11:42:39.664Z,411.6154
2023-04-23T11:43:42.212Z,413.4615
2023-04-23T11:44:42.972Z,411.0000
2023-04-23T11:45:44.701Z,413.1538
2023-04-23T11:46:46.272Z,413.3846
2023-04-23T11:47:47.962Z,413.0000
2023-04-23T11:48:49.562Z,410.1538
2023-04-23T11:49:51.271Z,410.4615
2023-04-23T11:50:53.130Z,412.6923
2023-04-23T11:51:54.611Z,414.1538
2023-04-23T11:52:56.201Z,418.0000
2023-04-23T11:53:57.906Z,418.8462
2023-04-23T11:54:59.467Z,414.7692
2023-04-23T11:56:01.219Z,411.0769
2023-04-23T11:57:02.788Z,408.4615
2023-04-23T11:58:04.472Z,403.6923
2023-04-23T11:59:06.069Z,405.7692
2023-04-23T12:00:07.763Z,406.4615
2023-04-23T12:01:09.448Z,410.3077
2023-04-23T12:02:11.100Z,411.2308
2023-04-23T12:03:12.936Z,414.0769
2023-04-23T12:04:14.662Z,416.2308
2023-04-23T12:05:16.154Z,413.6154